Time;durP1;ratioP1;P1;durP2;ratioP2;P2;SDS_P1;SDS_P2;PMS_P1;PMS_P2;Temp;Humidity;BMP_temperature;BMP_pressure;BME280_temperature;BME280_humidity;BME280_pressure;Samples;Min_cycle;Max_cycle;Signal;HPM_P1;HPM_P2
2022/04/25 00:01:37;;;;;;;10.85;5.65;;;;;;;8.10;84.32;100687.19;5341258;27;20046;-61
2022/04/25 00:04:08;;;;;;;12.43;6.43;;;;;;;8.11;83.98;100691.53;5345628;27;20040;-62
2022/04/25 00:06:39;;;;;;;10.40;6.30;;;;;;;7.96;84.65;100693.47;5345162;27;20479;-61
2022/04/25 00:09:10;;;;;;;11.20;6.72;;;;;;;7.88;84.84;100690.44;5350920;27;21288;-61
2022/04/25 00:11:42;;;;;;;11.65;6.13;;;;;;;7.87;84.80;100699.41;5355337;27;20030;-61
2022/04/25 00:14:14;;;;;;;11.38;5.88;;;;;;;7.85;84.92;100703.00;5344804;27;20433;-61
2022/04/25 00:16:45;;;;;;;8.80;6.30;;;;;;;7.71;85.96;100695.13;5348167;27;20070;-62
2022/04/25 00:19:17;;;;;;;9.05;6.25;;;;;;;7.64;86.01;100701.78;5353952;27;20470;-61
2022/04/25 00:21:48;;;;;;;11.00;6.10;;;;;;;7.65;85.78;100696.38;5352961;27;20100;-61
2022/04/25 00:24:19;;;;;;;10.77;6.88;;;;;;;7.57;86.91;100708.44;5356084;27;20452;-61
2022/04/25 00:26:51;;;;;;;9.88;6.45;;;;;;;7.60;86.64;100700.28;5351137;27;20030;-62
2022/04/25 00:29:22;;;;;;;11.10;6.63;;;;;;;7.45;86.96;100704.78;5352191;27;20488;-61
2022/04/25 00:31:53;;;;;;;12.82;7.47;;;;;;;7.38;87.65;100706.16;5349666;27;20027;-62
2022/04/25 00:34:24;;;;;;;11.40;6.97;;;;;;;7.36;87.62;100705.41;5347720;27;20030;-61
2022/04/25 00:36:56;;;;;;;12.63;6.60;;;;;;;7.30;87.92;100705.81;5353358;27;20464;-61
2022/04/25 00:39:27;;;;;;;12.60;6.97;;;;;;;7.24;88.13;100697.28;5353488;27;20121;-61
2022/04/25 00:41:58;;;;;;;13.10;6.88;;;;;;;7.29;88.33;100706.75;5350098;27;20035;-61
2022/04/25 00:44:30;;;;;;;11.95;7.65;;;;;;;7.20;88.58;100698.44;5347522;27;20031;-61
2022/04/25 00:47:03;;;;;;;13.73;7.43;;;;;;;7.17;88.96;100701.31;5344942;27;20027;-61
2022/04/25 00:49:34;;;;;;;11.35;6.90;;;;;;;7.09;88.92;100703.56;5347955;27;20034;-61
2022/04/25 00:52:06;;;;;;;10.90;7.07;;;;;;;7.12;89.40;100697.25;5346658;27;20055;-61
2022/04/25 00:54:37;;;;;;;13.32;7.30;;;;;;;7.05;90.18;100697.59;5351558;27;20039;-61
2022/04/25 00:57:09;;;;;;;12.68;7.15;;;;;;;7.07;89.89;100706.31;5345964;27;20054;-61
2022/04/25 00:59:40;;;;;;;11.45;7.75;;;;;;;7.06;90.09;100695.84;5347775;27;20075;-62
2022/04/25 01:02:11;;;;;;;12.57;7.72;;;;;;;6.93;90.44;100692.25;5345121;27;20491;-62
2022/04/25 01:04:43;;;;;;;14.88;8.40;;;;;;;6.85;90.90;100696.25;5326688;27;20046;-61
2022/04/25 01:07:14;;;;;;;13.32;8.05;;;;;;;6.84;91.54;100691.03;5353492;27;20052;-62
2022/04/25 01:09:46;;;;;;;13.60;8.25;;;;;;;6.80;91.66;100695.69;5350785;27;20377;-61
2022/04/25 01:12:17;;;;;;;17.75;9.10;;;;;;;6.75;92.29;100700.44;5337959;27;20472;-61
2022/04/25 01:14:56;;;;;;;15.50;8.40;;;;;;;6.74;92.44;100698.72;5348947;27;20019;-62
2022/04/25 01:17:28;;;;;;;13.60;8.95;;;;;;;6.67;92.84;100694.75;5340333;27;20051;-61
2022/04/25 01:19:59;;;;;;;14.30;8.80;;;;;;;6.66;92.76;100693.06;5353584;27;20023;-61
2022/04/25 01:22:35;;;;;;;13.00;8.40;;;;;;;6.59;93.29;100697.03;5347910;27;20471;-62
2022/04/25 01:27:57;;;;;;;14.40;9.60;;;;;;;6.57;93.55;100690.97;5344857;27;20415;-61
2022/04/25 01:30:31;;;;;;;13.32;9.05;;;;;;;6.48;94.13;100692.38;5344603;27;20026;-61
2022/04/25 01:33:03;;;;;;;12.45;8.45;;;;;;;6.47;93.82;100696.00;5344579;27;20109;-61
2022/04/25 01:35:34;;;;;;;13.63;8.75;;;;;;;6.39;94.65;100692.97;5348714;27;20105;-61
2022/04/25 01:38:05;;;;;;;16.67;9.43;;;;;;;6.35;95.16;100691.44;5352196;27;20410;-61
2022/04/25 01:40:37;;;;;;;17.02;10.20;;;;;;;6.36;95.91;100694.00;5350202;27;20499;-61
2022/04/25 01:43:09;;;;;;;16.00;9.23;;;;;;;6.36;95.11;100696.63;5345854;27;20027;-61
2022/04/25 01:45:40;;;;;;;17.92;9.35;;;;;;;6.32;95.48;100702.25;5344516;27;20031;-61
2022/04/25 01:48:12;;;;;;;16.38;9.23;;;;;;;6.27;95.70;100705.16;5347394;27;20034;-60
2022/04/25 01:50:43;;;;;;;18.20;9.77;;;;;;;6.22;95.87;100702.78;5345236;27;20039;-60
2022/04/25 01:53:14;;;;;;;18.15;10.13;;;;;;;6.19;96.36;100699.47;5341140;27;20388;-60
2022/04/25 01:55:45;;;;;;;17.92;9.63;;;;;;;6.18;96.53;100700.44;5344837;27;20045;-60
2022/04/25 01:58:17;;;;;;;15.30;10.18;;;;;;;6.17;96.53;100709.31;5351620;27;20504;-60
2022/04/25 02:00:49;;;;;;;19.33;10.05;;;;;;;6.15;96.80;100703.25;5342154;27;20149;-60
2022/04/25 02:03:20;;;;;;;15.85;10.70;;;;;;;6.06;96.87;100702.88;5349293;27;20403;-61
2022/04/25 02:05:52;;;;;;;14.77;10.35;;;;;;;6.12;97.41;100700.78;5350638;27;20022;-60
2022/04/25 02:08:23;;;;;;;17.45;10.68;;;;;;;6.05;97.25;100701.16;5359726;27;20039;-60
2022/04/25 02:13:45;;;;;;;16.92;10.77;;;;;;;5.96;98.50;100700.84;5344819;27;20046;-60
2022/04/25 02:16:18;;;;;;;17.80;10.52;;;;;;;5.97;98.70;100694.63;5345362;27;20035;-61
2022/04/25 02:18:51;;;;;;;17.90;10.80;;;;;;;5.90;99.27;100696.75;5338064;27;20141;-61
2022/04/25 02:21:22;;;;;;;16.42;11.02;;;;;;;5.85;99.37;100701.47;5343270;27;20058;-60
2022/04/25 02:23:54;;;;;;;16.27;10.80;;;;;;;5.88;99.39;100691.53;5341969;27;20034;-60
2022/04/25 02:26:25;;;;;;;19.23;11.00;;;;;;;5.81;99.66;100700.81;5347033;27;20030;-60
2022/04/25 02:28:57;;;;;;;18.38;11.18;;;;;;;5.79;99.66;100685.94;5341093;27;20114;-60
2022/04/25 02:31:28;;;;;;;16.77;11.32;;;;;;;5.70;99.79;100693.47;5338863;27;20390;-61
2022/04/25 02:33:59;;;;;;;18.60;10.65;;;;;;;5.74;99.78;100696.81;5348906;27;20425;-60
2022/04/25 02:36:31;;;;;;;16.88;11.55;;;;;;;5.72;100.00;100690.75;5350537;27;20617;-60
2022/04/25 02:39:03;;;;;;;18.17;11.00;;;;;;;5.77;100.00;100693.09;5347462;27;20038;-60
2022/04/25 02:41:34;;;;;;;19.10;11.32;;;;;;;5.69;100.00;100691.78;5326229;27;20034;-60
2022/04/25 02:44:05;;;;;;;15.45;10.88;;;;;;;5.62;100.00;100700.16;5353288;27;20545;-60
2022/04/25 02:46:36;;;;;;;17.40;11.43;;;;;;;5.64;100.00;100693.00;5344894;27;20035;-60
2022/04/25 02:49:08;;;;;;;15.73;11.00;;;;;;;5.58;100.00;100696.84;5351018;27;20022;-61
2022/04/25 02:51:39;;;;;;;20.58;11.52;;;;;;;5.56;100.00;100697.88;5346018;27;20030;-60
2022/04/25 02:54:10;;;;;;;18.65;11.20;;;;;;;5.56;100.00;100693.44;5345736;27;20034;-61
2022/04/25 02:56:42;;;;;;;19.05;11.23;;;;;;;5.59;100.00;100690.59;5345470;27;20079;-61
2022/04/25 02:59:14;;;;;;;19.27;12.10;;;;;;;5.49;100.00;100702.66;5346231;27;20034;-61
2022/04/25 03:01:46;;;;;;;20.60;13.18;;;;;;;5.53;100.00;100698.06;5343063;27;20489;-61
2022/04/25 03:04:17;;;;;;;18.73;12.25;;;;;;;5.48;100.00;100698.31;5349368;27;20050;-61
2022/04/25 03:06:49;;;;;;;16.67;11.50;;;;;;;5.47;100.00;100696.63;5342505;27;20031;-61
2022/04/25 03:09:21;;;;;;;19.95;12.50;;;;;;;5.45;100.00;100690.56;5338425;27;20039;-61
2022/04/25 03:11:53;;;;;;;21.65;12.85;;;;;;;5.42;100.00;100696.03;5339565;27;20030;-61
2022/04/25 03:14:26;;;;;;;19.77;12.70;;;;;;;5.42;100.00;100698.66;5350763;27;20480;-61
2022/04/25 03:16:58;;;;;;;20.70;13.18;;;;;;;5.40;100.00;100695.25;5348192;27;20050;-62
2022/04/25 03:19:30;;;;;;;19.83;12.10;;;;;;;5.37;100.00;100696.28;5344313;27;20106;-61
2022/04/25 03:22:01;;;;;;;20.42;12.48;;;;;;;5.35;100.00;100705.25;5343391;27;20044;-61
2022/04/25 03:24:33;;;;;;;19.48;12.95;;;;;;;5.30;100.00;100690.47;5349095;27;20038;-61
2022/04/25 03:27:04;;;;;;;21.15;13.63;;;;;;;5.30;100.00;100690.47;5340649;27;20030;-61
2022/04/25 03:29:36;;;;;;;20.30;12.80;;;;;;;5.33;100.00;100697.41;5350454;27;20119;-62
2022/04/25 03:32:07;;;;;;;23.02;13.38;;;;;;;5.21;100.00;100696.28;5351388;27;20038;-62
2022/04/25 03:34:38;;;;;;;21.67;13.23;;;;;;;5.21;100.00;100709.53;5343638;27;20030;-61
2022/04/25 03:37:13;;;;;;;20.25;13.70;;;;;;;5.19;100.00;100700.81;5341747;27;20110;-61
2022/04/25 03:39:44;;;;;;;16.83;12.55;;;;;;;5.26;100.00;100701.34;5340510;27;20038;-61
2022/04/25 03:42:15;;;;;;;22.83;13.02;;;;;;;5.30;100.00;100711.66;5338856;27;20038;-61
2022/04/25 03:44:47;;;;;;;18.40;13.27;;;;;;;5.26;100.00;100704.81;5345467;27;20026;-61
2022/04/25 03:47:18;;;;;;;22.38;12.63;;;;;;;5.19;100.00;100710.56;5343826;27;20034;-61
2022/04/25 03:49:49;;;;;;;21.23;13.60;;;;;;;5.15;100.00;100707.22;5351601;27;20023;-61
2022/04/25 03:52:20;;;;;;;22.48;14.13;;;;;;;5.11;100.00;100714.47;5344324;27;20037;-61
2022/04/25 03:57:42;;;;;;;23.52;14.05;;;;;;;5.14;100.00;100713.47;5343936;27;20620;-61
2022/04/25 04:00:13;;;;;;;23.80;14.02;;;;;;;5.10;100.00;100717.19;5345142;27;20401;-61
2022/04/25 04:02:45;;;;;;;23.98;15.10;;;;;;;5.06;100.00;100713.03;5349916;27;20019;-62
2022/04/25 04:05:17;;;;;;;23.05;15.20;;;;;;;5.08;100.00;100713.78;5341783;27;20560;-61
2022/04/25 04:07:49;;;;;;;24.15;15.00;;;;;;;5.01;100.00;100723.03;5342154;27;20054;-61
2022/04/25 04:10:21;;;;;;;22.98;15.60;;;;;;;4.97;100.00;100718.84;5343159;27;20047;-61
2022/04/25 04:12:52;;;;;;;22.63;14.45;;;;;;;5.01;100.00;100728.31;5348662;27;20030;-61
2022/04/25 04:15:23;;;;;;;24.17;16.00;;;;;;;4.91;100.00;100720.88;5340495;27;20038;-61
2022/04/25 04:17:54;;;;;;;25.35;15.75;;;;;;;4.91;100.00;100728.81;5341169;27;20122;-61
2022/04/25 04:20:26;;;;;;;23.83;15.75;;;;;;;4.90;100.00;100727.09;5348327;27;20480;-61
2022/04/25 04:22:57;;;;;;;27.15;15.13;;;;;;;4.87;100.00;100727.28;5351903;27;20072;-61
2022/04/25 04:25:28;;;;;;;23.08;15.10;;;;;;;4.82;100.00;100728.47;5350572;27;20029;-61
2022/04/25 04:28:00;;;;;;;25.45;15.52;;;;;;;4.80;100.00;100723.25;5350656;27;20445;-62
2022/04/25 04:30:31;;;;;;;24.95;15.13;;;;;;;4.80;100.00;100732.97;5352791;27;20027;-62
2022/04/25 04:33:02;;;;;;;27.67;16.13;;;;;;;4.78;100.00;100738.34;5348154;27;20105;-62
2022/04/25 04:38:24;;;;;;;27.60;16.92;;;;;;;4.77;100.00;100738.41;5354290;27;21243;-62
2022/04/25 04:40:55;;;;;;;25.25;16.77;;;;;;;4.81;100.00;100747.88;5351544;27;20023;-61
2022/04/25 04:43:26;;;;;;;24.65;16.98;;;;;;;4.79;100.00;100741.84;5352368;27;20168;-61
2022/04/25 04:45:58;;;;;;;25.88;16.65;;;;;;;4.83;100.00;100746.88;5350064;27;20018;-61
2022/04/25 04:48:29;;;;;;;24.60;16.85;;;;;;;4.79;100.00;100742.69;5347020;27;20027;-61
2022/04/25 04:51:00;;;;;;;24.67;16.80;;;;;;;4.80;100.00;100747.03;5349845;27;20540;-61
2022/04/25 04:53:32;;;;;;;27.27;16.35;;;;;;;4.83;100.00;100752.19;5353653;27;20022;-61
2022/04/25 04:56:03;;;;;;;23.83;15.13;;;;;;;4.83;100.00;100748.66;5348345;27;20436;-61
2022/04/25 04:58:35;;;;;;;23.83;16.58;;;;;;;4.90;100.00;100756.16;5349007;27;20075;-61
2022/04/25 05:01:07;;;;;;;27.23;17.27;;;;;;;4.90;100.00;100750.88;5344191;27;20057;-61
2022/04/25 05:03:41;;;;;;;25.50;17.08;;;;;;;4.95;100.00;100755.94;5349738;27;20064;-61
2022/04/25 05:06:13;;;;;;;23.45;16.23;;;;;;;5.00;100.00;100761.81;5353526;27;20443;-61
2022/04/25 05:08:44;;;;;;;26.02;17.30;;;;;;;5.00;100.00;100763.59;5338717;27;20033;-61
2022/04/25 05:11:15;;;;;;;26.85;16.92;;;;;;;5.05;100.00;100767.72;5349463;27;20054;-61
2022/04/25 05:13:48;;;;;;;24.38;16.55;;;;;;;5.14;100.00;100776.06;5348614;27;20027;-61
2022/04/25 05:16:19;;;;;;;23.38;16.55;;;;;;;5.23;100.00;100772.91;5346344;27;20031;-61
2022/04/25 05:18:50;;;;;;;28.85;16.73;;;;;;;5.28;100.00;100774.38;5351658;27;20107;-62
2022/04/25 05:21:21;;;;;;;27.00;16.13;;;;;;;5.42;100.00;100778.03;5351282;27;20026;-61
2022/04/25 05:23:53;;;;;;;26.45;16.23;;;;;;;5.50;100.00;100775.81;5348793;27;20038;-61
2022/04/25 05:26:24;;;;;;;25.02;17.00;;;;;;;5.55;100.00;100781.69;5332495;27;20556;-61
2022/04/25 05:28:57;;;;;;;23.52;15.50;;;;;;;5.61;100.00;100781.34;5356934;27;20034;-61
2022/04/25 05:31:28;;;;;;;24.58;15.27;;;;;;;5.72;100.00;100783.41;5345026;27;20078;-61
2022/04/25 05:34:01;;;;;;;23.27;16.30;;;;;;;5.76;100.00;100784.94;5347015;27;20488;-62
2022/04/25 05:36:32;;;;;;;28.75;15.75;;;;;;;5.92;100.00;100782.22;5344920;27;20119;-61
2022/04/25 05:39:04;;;;;;;24.60;15.85;;;;;;;5.97;100.00;100784.66;5349567;27;20285;-61
2022/04/25 05:41:36;;;;;;;22.60;15.30;;;;;;;6.05;100.00;100803.59;5348668;27;20116;-61
2022/04/25 05:44:12;;;;;;;25.98;15.32;;;;;;;6.17;100.00;100796.72;5351766;27;20022;-61
2022/04/25 05:46:43;;;;;;;24.02;15.52;;;;;;;6.19;100.00;100802.78;5343157;27;20042;-61
2022/04/25 05:52:05;;;;;;;23.83;14.63;;;;;;;6.41;100.00;100800.56;5347541;27;20043;-61
2022/04/25 05:54:36;;;;;;;23.00;15.45;;;;;;;6.45;100.00;100803.91;5346104;27;20035;-61
2022/04/25 05:57:08;;;;;;;24.13;15.45;;;;;;;6.53;100.00;100806.09;5353763;27;20030;-62
2022/04/25 05:59:39;;;;;;;25.42;14.55;;;;;;;6.54;100.00;100803.34;5350501;27;20044;-61
2022/04/25 06:02:10;;;;;;;21.90;14.85;;;;;;;6.61;100.00;100809.13;5349902;27;20062;-62
2022/04/25 06:04:42;;;;;;;24.63;16.05;;;;;;;6.76;100.00;100813.50;5349284;27;20019;-61
2022/04/25 06:07:13;;;;;;;20.63;15.55;;;;;;;6.72;100.00;100817.28;5349954;27;20030;-61
2022/04/25 06:09:44;;;;;;;26.10;14.98;;;;;;;6.79;100.00;100820.44;5349955;27;20068;-61
2022/04/25 06:12:15;;;;;;;23.02;15.38;;;;;;;6.79;100.00;100815.13;5344575;27;20097;-61
2022/04/25 06:14:48;;;;;;;23.27;15.30;;;;;;;6.94;100.00;100821.25;5339380;27;20265;-61
2022/04/25 06:17:19;;;;;;;23.40;15.30;;;;;;;6.94;100.00;100826.56;5347353;27;20055;-62
2022/04/25 06:19:50;;;;;;;25.65;16.38;;;;;;;7.00;100.00;100827.06;5350756;27;20034;-61
2022/04/25 06:22:21;;;;;;;20.55;16.02;;;;;;;7.15;100.00;100827.91;5359465;27;20079;-62
2022/04/25 06:24:53;;;;;;;21.05;15.32;;;;;;;7.14;100.00;100834.16;5358476;27;20033;-61
2022/04/25 06:27:24;;;;;;;23.52;16.20;;;;;;;7.25;100.00;100836.16;5356850;27;20026;-61
2022/04/25 06:29:56;;;;;;;24.77;16.38;;;;;;;7.26;100.00;100832.53;5352042;27;20059;-61
2022/04/25 06:32:27;;;;;;;22.00;15.43;;;;;;;7.39;100.00;100835.25;5361802;27;20027;-61
2022/04/25 06:34:59;;;;;;;23.20;16.33;;;;;;;7.41;100.00;100831.56;5361088;27;20057;-61
2022/04/25 06:37:30;;;;;;;26.80;16.38;;;;;;;7.43;100.00;100828.81;5363071;27;20551;-62
2022/04/25 06:40:02;;;;;;;22.05;16.52;;;;;;;7.44;100.00;100834.03;5361423;27;20539;-61
2022/04/25 06:42:33;;;;;;;23.13;16.13;;;;;;;7.42;100.00;100829.75;5357922;27;20464;-61
2022/04/25 06:45:05;;;;;;;22.50;17.10;;;;;;;7.51;100.00;100834.47;5342009;27;20046;-61
2022/04/25 06:47:36;;;;;;;23.42;17.00;;;;;;;7.56;100.00;100836.84;5342509;27;20027;-61
2022/04/25 06:50:10;;;;;;;22.63;15.98;;;;;;;7.82;100.00;100841.34;5354833;27;20119;-61
2022/04/25 06:52:41;;;;;;;22.35;16.08;;;;;;;7.90;99.51;100835.53;5358916;27;20026;-61
2022/04/25 06:55:12;;;;;;;23.75;16.23;;;;;;;8.06;99.64;100830.03;5356153;27;20034;-62
2022/04/25 06:57:44;;;;;;;23.58;15.73;;;;;;;8.10;98.32;100838.66;5359066;27;20109;-61
2022/04/25 07:00:17;;;;;;;25.00;16.92;;;;;;;8.09;97.23;100848.41;5349220;27;20434;-61
2022/04/25 07:02:51;;;;;;;22.42;16.67;;;;;;;8.12;97.31;100844.72;5350395;27;20090;-61
2022/04/25 07:05:22;;;;;;;22.60;16.58;;;;;;;8.22;96.96;100851.13;5348766;27;20090;-61
2022/04/25 07:07:53;;;;;;;23.30;16.63;;;;;;;8.15;96.46;100849.81;5348843;27;20392;-61
2022/04/25 07:10:25;;;;;;;21.77;16.50;;;;;;;8.14;96.96;100843.66;5351253;27;20034;-61
2022/04/25 07:12:56;;;;;;;22.65;16.83;;;;;;;8.18;96.66;100845.16;5347695;27;20026;-61
2022/04/25 07:15:27;;;;;;;22.85;16.48;;;;;;;8.19;96.24;100849.53;5349045;27;20033;-61
2022/04/25 07:18:00;;;;;;;23.08;16.40;;;;;;;8.27;96.51;100850.84;5355985;27;20080;-61
2022/04/25 07:20:31;;;;;;;23.23;17.33;;;;;;;8.35;96.67;100852.00;5358229;27;20091;-61
2022/04/25 07:28:53;;;;;;;26.45;17.95;;;;;;;8.58;96.02;100854.97;5284353;27;20479;-62
2022/04/25 07:31:24;;;;;;;25.15;18.00;;;;;;;8.62;95.73;100861.78;5354459;27;20082;-61
2022/04/25 07:33:57;;;;;;;24.85;17.48;;;;;;;8.69;96.19;100855.09;5355348;27;20072;-62
2022/04/25 07:36:28;;;;;;;27.65;17.65;;;;;;;8.59;94.78;100861.97;5352734;27;20126;-61
2022/04/25 07:38:59;;;;;;;24.88;18.85;;;;;;;8.58;95.28;100860.28;5354003;27;20023;-62
2022/04/25 07:41:31;;;;;;;22.77;17.88;;;;;;;8.69;95.68;100865.72;5352965;27;20087;-61
2022/04/25 07:44:04;;;;;;;26.70;18.92;;;;;;;8.68;94.92;100863.16;5355471;27;20027;-62
2022/04/25 07:46:36;;;;;;;24.90;19.27;;;;;;;8.69;94.90;100863.06;5350723;27;20031;-62
2022/04/25 07:49:11;;;;;;;26.95;19.60;;;;;;;8.68;93.75;100871.16;5354172;27;20031;-61
2022/04/25 07:51:42;;;;;;;25.85;18.88;;;;;;;8.66;94.02;100871.25;5350554;27;20361;-61
2022/04/25 07:54:14;;;;;;;23.77;18.95;;;;;;;8.71;94.56;100870.94;5351815;27;20039;-62
2022/04/25 07:56:46;;;;;;;26.50;19.25;;;;;;;8.78;94.34;100878.41;5348232;27;20031;-61
2022/04/25 07:59:18;;;;;;;25.10;18.98;;;;;;;8.75;94.10;100883.06;5335567;27;20498;-62
2022/04/25 08:01:50;;;;;;;25.15;19.48;;;;;;;8.69;93.71;100879.03;5356906;27;20430;-61
2022/04/25 08:04:21;;;;;;;25.08;18.83;;;;;;;8.69;93.99;100888.81;5361893;27;20027;-62
2022/04/25 08:06:52;;;;;;;23.80;17.75;;;;;;;8.70;93.41;100891.34;5355129;27;20061;-62
2022/04/25 08:09:24;;;;;;;25.05;18.67;;;;;;;8.73;94.47;100896.47;5355933;27;20026;-61
2022/04/25 08:20:28;;;;;;;24.40;19.92;;;;;;;8.46;98.07;100904.50;5349693;27;20780;-61
2022/04/25 08:22:59;;;;;;;27.92;20.95;;;;;;;8.27;99.54;100906.66;5353416;27;20054;-62
2022/04/25 08:25:32;;;;;;;31.30;23.70;;;;;;;8.24;100.00;100910.34;5359281;27;20126;-62
2022/04/25 08:28:05;;;;;;;33.67;24.35;;;;;;;8.27;100.00;100909.31;5354656;27;20113;-62
2022/04/25 08:30:37;;;;;;;31.02;24.10;;;;;;;8.26;100.00;100919.06;5353901;27;20022;-62
2022/04/25 08:33:10;;;;;;;36.92;26.63;;;;;;;8.30;100.00;100915.25;5360183;27;20091;-62
2022/04/25 08:35:42;;;;;;;35.15;25.98;;;;;;;8.22;100.00;100918.41;5362231;27;20058;-62
2022/04/25 08:38:13;;;;;;;37.20;28.00;;;;;;;8.24;100.00;100920.97;5361855;27;20021;-62
2022/04/25 08:40:46;;;;;;;44.50;29.80;;;;;;;8.28;100.00;100916.31;5359278;27;20038;-63
2022/04/25 08:43:17;;;;;;;41.03;29.40;;;;;;;8.29;100.00;100928.69;5361329;27;20031;-62
2022/04/25 08:45:51;;;;;;;42.22;29.63;;;;;;;8.17;100.00;100936.50;5360509;27;20038;-62
2022/04/25 08:48:25;;;;;;;40.38;29.15;;;;;;;8.03;100.00;100937.41;5360238;27;20019;-62
2022/04/25 08:50:58;;;;;;;39.40;29.20;;;;;;;7.96;100.00;100937.88;5355882;27;20019;-62
2022/04/25 08:53:30;;;;;;;40.58;27.95;;;;;;;7.88;100.00;100937.50;5362637;27;20703;-62
2022/04/25 08:56:03;;;;;;;41.72;29.23;;;;;;;7.87;100.00;100939.31;5352843;27;20038;-63
2022/04/25 08:58:39;;;;;;;47.28;31.52;;;;;;;7.88;100.00;100946.34;5354774;27;20054;-63
2022/04/25 09:01:12;;;;;;;42.67;29.83;;;;;;;7.79;100.00;100944.25;5353519;27;20022;-63
2022/04/25 09:03:43;;;;;;;45.55;30.13;;;;;;;7.68;100.00;100949.41;5349326;27;20080;-63
2022/04/25 09:06:14;;;;;;;46.13;31.60;;;;;;;7.70;100.00;100953.66;5361047;27;20414;-63
2022/04/25 09:08:47;;;;;;;45.88;31.13;;;;;;;7.67;100.00;100951.22;5359507;27;20480;-62
2022/04/25 09:14:10;;;;;;;47.97;30.73;;;;;;;7.61;100.00;100959.53;5357184;27;20118;-63
2022/04/25 09:16:41;;;;;;;50.53;33.85;;;;;;;7.74;100.00;100960.47;5354915;27;20027;-63
2022/04/25 09:19:14;;;;;;;51.40;34.97;;;;;;;7.74;100.00;100964.94;5362671;27;20027;-62
2022/04/25 09:21:45;;;;;;;51.50;34.28;;;;;;;7.72;100.00;100966.84;5361533;27;20630;-62
2022/04/25 09:24:23;;;;;;;48.60;33.58;;;;;;;7.63;100.00;100974.44;5355856;27;20075;-62
2022/04/25 09:27:07;;;;;;;51.30;34.58;;;;;;;7.84;100.00;100969.59;5359695;27;20100;-62
2022/04/25 09:29:40;;;;;;;50.53;35.10;;;;;;;7.67;100.00;100975.13;5357746;27;20035;-63
2022/04/25 09:32:13;;;;;;;56.50;35.13;;;;;;;7.71;100.00;100971.31;5360509;27;20026;-63
2022/04/25 09:35:04;;;;;;;48.10;32.90;;;;;;;7.66;100.00;100976.03;5358904;27;20272;-63
2022/04/25 09:37:39;;;;;;;51.03;34.72;;;;;;;7.75;100.00;100970.16;5357010;27;20072;-62
2022/04/25 09:40:11;;;;;;;51.10;35.15;;;;;;;7.74;100.00;100968.44;5356456;27;20034;-63
2022/04/25 09:42:43;;;;;;;51.15;35.35;;;;;;;7.68;100.00;100971.50;5355667;27;20114;-63
2022/04/25 09:45:15;;;;;;;50.60;34.85;;;;;;;7.72;100.00;100969.50;5354149;27;20018;-63
2022/04/25 09:47:47;;;;;;;54.35;36.45;;;;;;;7.75;100.00;100975.47;5351900;27;20047;-62
2022/04/25 09:50:19;;;;;;;53.55;36.70;;;;;;;7.82;100.00;100968.84;5358135;27;20314;-63
2022/04/25 09:52:57;;;;;;;55.83;38.10;;;;;;;7.91;100.00;100978.00;5356651;27;20079;-63
2022/04/25 09:55:31;;;;;;;59.10;37.85;;;;;;;7.93;100.00;100976.09;5350477;27;20180;-63
2022/04/25 09:58:23;;;;;;;55.58;36.05;;;;;;;7.94;100.00;100977.81;5358065;27;20164;-63
2022/04/25 10:00:54;;;;;;;51.15;33.83;;;;;;;7.97;100.00;100982.09;5354439;27;20075;-63
2022/04/25 10:03:34;;;;;;;49.05;33.58;;;;;;;7.87;100.00;100980.97;5357280;27;20484;-63
2022/04/25 10:06:07;;;;;;;45.75;31.92;;;;;;;7.94;100.00;100992.91;5348992;27;20034;-63
2022/04/25 10:08:39;;;;;;;45.25;31.35;;;;;;;7.99;100.00;100991.66;5357240;27;20031;-63
2022/04/25 10:11:13;;;;;;;47.55;32.08;;;;;;;8.02;100.00;100996.78;5359225;27;20050;-63
2022/04/25 10:13:46;;;;;;;47.70;33.42;;;;;;;8.07;100.00;101000.94;5361134;27;20030;-62
2022/04/25 10:16:20;;;;;;;51.97;33.67;;;;;;;8.10;100.00;101001.63;5354226;27;20031;-63
2022/04/25 10:18:52;;;;;;;44.47;30.98;;;;;;;8.08;100.00;101002.69;5353256;27;20457;-63
2022/04/25 10:21:29;;;;;;;42.67;29.45;;;;;;;7.98;100.00;101000.59;5353269;27;20042;-63
2022/04/25 10:24:00;;;;;;;39.63;28.90;;;;;;;8.01;100.00;101013.66;5353188;27;20119;-63
2022/04/25 10:26:32;;;;;;;42.45;29.80;;;;;;;8.13;100.00;101006.75;5356474;27;20060;-63
2022/04/25 10:29:14;;;;;;;50.63;31.77;;;;;;;8.25;100.00;101003.28;5357287;27;20038;-63
2022/04/25 10:31:48;;;;;;;48.72;31.60;;;;;;;8.23;100.00;101013.16;5356658;27;20480;-63
2022/04/25 10:34:19;;;;;;;49.67;31.65;;;;;;;8.40;100.00;101019.22;5349147;27;20114;-63
2022/04/25 10:36:50;;;;;;;49.30;32.50;;;;;;;8.48;100.00;101024.06;5347925;27;20505;-63
2022/04/25 10:39:24;;;;;;;49.63;31.92;;;;;;;8.52;100.00;101018.44;5353471;27;20476;-63
2022/04/25 10:44:45;;;;;;;46.15;32.53;;;;;;;8.40;100.00;101033.34;5360946;27;20113;-63
2022/04/25 10:47:20;;;;;;;42.67;29.30;;;;;;;8.32;100.00;101033.00;5349343;27;20027;-63
2022/04/25 10:49:55;;;;;;;;;;;;;;;8.39;100.00;101028.97;5360488;27;20058;-63
2022/04/25 10:52:52;;;;;;;38.80;27.63;;;;;;;8.33;100.00;101037.34;5361641;27;20325;-63
2022/04/25 10:55:32;;;;;;;40.63;29.27;;;;;;;8.33;100.00;101033.84;5344627;27;20031;-63
2022/04/25 10:58:03;;;;;;;44.15;31.50;;;;;;;8.37;100.00;101035.34;5361632;27;20053;-63
2022/04/25 11:00:40;;;;;;;44.00;30.48;;;;;;;8.30;100.00;101042.84;5355625;27;20030;-63
2022/04/25 11:03:20;;;;;;;42.60;29.40;;;;;;;8.24;100.00;101029.97;5361397;27;20035;-63
2022/04/25 11:06:03;;;;;;;44.78;30.95;;;;;;;8.30;100.00;101042.84;5361889;27;20130;-63
2022/04/25 11:08:37;;;;;;;47.85;32.28;;;;;;;8.36;100.00;101033.63;5360174;27;20027;-63
2022/04/25 11:11:18;;;;;;;46.25;31.02;;;;;;;8.36;100.00;101042.50;5351021;27;20052;-63
2022/04/25 11:13:49;;;;;;;43.28;30.05;;;;;;;8.46;100.00;101041.91;5360856;27;20087;-63
2022/04/25 11:16:23;;;;;;;40.28;28.42;;;;;;;8.48;100.00;101045.34;5355220;27;20457;-63
2022/04/25 11:19:09;;;;;;;44.20;30.33;;;;;;;8.48;100.00;101045.34;5364171;27;20038;-63
2022/04/25 11:21:45;;;;;;;39.78;28.30;;;;;;;8.46;100.00;101050.75;5361664;27;20069;-63
2022/04/25 11:24:30;;;;;;;39.78;28.27;;;;;;;8.50;100.00;101059.41;5357462;27;20109;-63
2022/04/25 11:27:11;;;;;;;40.75;28.65;;;;;;;8.45;100.00;101057.00;5363879;27;20427;-64
2022/04/25 11:30:06;;;;;;;39.08;27.60;;;;;;;8.46;100.00;101055.19;5355535;27;20065;-64
2022/04/25 11:32:37;;;;;;;43.47;28.23;;;;;;;8.46;100.00;101065.84;5350509;27;20725;-63
2022/04/25 11:35:09;;;;;;;36.70;25.75;;;;;;;8.21;100.00;101070.06;5360479;27;20023;-64
2022/04/25 11:37:40;;;;;;;36.60;26.50;;;;;;;8.22;100.00;101061.09;5362723;27;20107;-64
2022/04/25 11:40:12;;;;;;;32.75;24.90;;;;;;;8.13;100.00;101067.88;5359408;27;20030;-63
2022/04/25 11:42:43;;;;;;;33.97;25.35;;;;;;;8.12;100.00;101065.31;5338354;27;20164;-64
2022/04/25 11:45:14;;;;;;;37.67;26.30;;;;;;;8.28;100.00;101075.81;5348967;27;20030;-63
2022/04/25 11:47:46;;;;;;;46.88;30.48;;;;;;;8.44;100.00;101066.81;5357816;27;20050;-64
2022/04/25 11:50:20;;;;;;;44.90;29.88;;;;;;;8.49;100.00;101074.47;5360838;27;20026;-64
2022/04/25 11:52:52;;;;;;;;;;;;;;;8.56;100.00;101069.63;5361679;27;20343;-64
2022/04/25 11:55:34;;;;;;;48.83;30.60;;;;;;;8.76;100.00;101070.97;5353660;27;20448;-63
2022/04/25 11:58:06;;;;;;;46.75;32.38;;;;;;;8.76;100.00;101070.97;5354123;27;20029;-63
2022/04/25 12:00:43;;;;;;;46.92;31.33;;;;;;;8.68;100.00;101068.81;5358250;27;20031;-63
2022/04/25 12:03:19;;;;;;;47.72;31.65;;;;;;;8.78;100.00;101071.72;5363737;27;20079;-63
2022/04/25 12:05:51;;;;;;;41.78;29.42;;;;;;;8.82;100.00;101070.56;5357838;27;20015;-63
2022/04/25 12:16:54;;;;;;;44.80;30.98;;;;;;;9.00;100.00;101076.50;5359306;27;20043;-63
2022/04/25 12:19:25;;;;;;;40.30;28.38;;;;;;;8.77;100.00;101078.03;5356637;27;20026;-63
2022/04/25 12:22:03;;;;;;;38.45;27.85;;;;;;;8.76;100.00;101085.16;5361786;27;20030;-63